Search for airport 
image banner adimage banner ad
image banner ad

VEZO - Ziro

Located in , India

ICAO - VEZO, IATA - ZER

Data provided by Airmate  

General information

Coordinates: N27°35'18" E93°49'41"
Elevation is 5403 feet MSL.
 
View others Airports in Arunachal Pradesh

Operational data

Open for public use
Current time UTC:
Current local time:
Weather at : VELR - Lilabari ( 42 km )
METAR: VELR 310400Z 00000KT 6000 FEW020 BKN100 28/22 Q1012
TAF: TAF VELR 310200Z 3103/3112 05005KT 5000 BR FEW020 SCT100 BECMG 3109/3111 12005KT 5000 BR SCT018 BKN100
View NOTAMs / SUP AIP / TFR affecting this airport [VIEW]
Communications frequencies: [VIEW]

Runways:

RWY identifierQFULength (ft)Width (ft)SurfaceLDA (ft)
18183°4010100ASP
3600

Airport contact information

Address: India

Satellite view of VEZO